createdAt,value
2023-10-23T00:01:57.765Z,3.98
2023-10-23T00:07:00.535Z,3.95
2023-10-23T00:12:03.692Z,4.09
2023-10-23T00:17:06.871Z,3.95
2023-10-23T00:22:09.715Z,3.83
2023-10-23T00:27:12.437Z,3.76
2023-10-23T00:32:15.322Z,3.82
2023-10-23T00:37:18.129Z,3.80
2023-10-23T00:42:20.859Z,3.69
2023-10-23T00:47:24.273Z,3.68
2023-10-23T00:52:27.590Z,3.79
2023-10-23T00:57:30.360Z,3.83
2023-10-23T01:02:33.210Z,3.93
2023-10-23T01:07:36.256Z,4.15
2023-10-23T01:12:39.157Z,4.19
2023-10-23T01:17:42.141Z,4.27
2023-10-23T01:22:44.860Z,4.27
2023-10-23T01:27:47.637Z,4.37
2023-10-23T01:32:50.841Z,4.40
2023-10-23T01:37:53.629Z,4.45
2023-10-23T01:42:56.660Z,4.38
2023-10-23T01:47:59.454Z,4.09
2023-10-23T01:53:02.143Z,4.17
2023-10-23T01:58:04.888Z,4.13
2023-10-23T02:03:07.677Z,4.18
2023-10-23T02:08:10.366Z,4.26
2023-10-23T02:13:13.096Z,4.25
2023-10-23T02:18:16.056Z,4.18
2023-10-23T02:23:19.584Z,4.35
2023-10-23T02:28:22.362Z,4.25
2023-10-23T02:33:25.065Z,4.34
2023-10-23T02:38:27.917Z,4.30
2023-10-23T02:43:30.739Z,4.29
2023-10-23T02:48:33.682Z,4.36
2023-10-23T02:53:36.771Z,4.48
2023-10-23T02:58:39.645Z,4.56
2023-10-23T03:03:42.999Z,4.49
2023-10-23T03:08:45.679Z,4.29
2023-10-23T03:13:48.447Z,4.22
2023-10-23T03:18:51.270Z,4.23
2023-10-23T03:23:54.207Z,4.10
2023-10-23T03:28:57.153Z,4.26
2023-10-23T03:34:00.812Z,4.32
2023-10-23T03:39:03.799Z,4.43
2023-10-23T03:44:06.644Z,4.44
2023-10-23T03:49:09.508Z,4.41
2023-10-23T03:54:12.550Z,4.46
2023-10-23T03:59:15.337Z,4.48
2023-10-23T04:04:18.303Z,4.55
2023-10-23T04:09:21.051Z,4.62
2023-10-23T04:14:23.758Z,4.53
2023-10-23T04:19:26.429Z,4.61
2023-10-23T04:24:30.893Z,4.60
2023-10-23T04:29:33.662Z,4.59
2023-10-23T04:34:36.468Z,4.57
2023-10-23T04:39:39.437Z,4.60
2023-10-23T04:44:42.445Z,4.74
2023-10-23T04:49:48.804Z,4.78
2023-10-23T04:54:51.642Z,4.77
2023-10-23T04:59:54.308Z,4.89
2023-10-23T05:04:57.025Z,4.97
2023-10-23T05:09:59.748Z,5.03
2023-10-23T05:15:03.895Z,5.01
2023-10-23T05:20:09.911Z,5.08
2023-10-23T05:25:12.928Z,5.24
2023-10-23T05:30:15.625Z,5.22
2023-10-23T05:35:18.328Z,5.15
2023-10-23T05:40:20.958Z,5.04
2023-10-23T05:45:23.700Z,5.18
2023-10-23T05:50:26.337Z,5.23
2023-10-23T05:55:28.987Z,5.41
2023-10-23T06:00:31.643Z,5.26
2023-10-23T06:05:34.346Z,5.43
2023-10-23T06:10:46.249Z,5.57
2023-10-23T06:15:53.082Z,5.34
2023-10-23T06:21:05.942Z,5.57
2023-10-23T06:26:09.601Z,5.55
2023-10-23T06:31:12.799Z,5.60
2023-10-23T06:36:15.634Z,5.73
2023-10-23T06:41:18.336Z,5.67
2023-10-23T06:46:21.067Z,5.64
2023-10-23T06:51:23.778Z,5.76
2023-10-23T06:56:26.500Z,5.78
2023-10-23T07:01:38.219Z,5.79
2023-10-23T07:06:47.043Z,5.86
2023-10-23T07:11:53.539Z,5.90
2023-10-23T07:16:56.305Z,6.08
2023-10-23T07:21:59.031Z,6.06
2023-10-23T07:27:01.765Z,6.17
2023-10-23T07:32:05.008Z,6.34
2023-10-23T07:37:07.807Z,6.30
2023-10-23T07:42:10.541Z,6.36
2023-10-23T07:47:13.724Z,6.52
2023-10-23T07:52:16.428Z,6.49
2023-10-23T07:57:19.217Z,6.36
2023-10-23T08:02:21.991Z,6.32
2023-10-23T08:07:24.723Z,6.38
2023-10-23T08:12:27.601Z,6.56
2023-10-23T08:17:41.913Z,6.67
2023-10-23T08:22:45.414Z,6.66
2023-10-23T08:27:48.237Z,6.57
2023-10-23T08:32:53.219Z,6.39
2023-10-23T08:37:56.796Z,6.34
2023-10-23T08:43:00.481Z,6.49
2023-10-23T08:48:03.321Z,6.71
2023-10-23T08:53:10.703Z,6.66
2023-10-23T08:58:14.992Z,6.66
2023-10-23T09:04:04.016Z,6.70
2023-10-23T09:08:43.828Z,6.94
2023-10-23T09:13:46.487Z,6.90
2023-10-23T09:18:52.937Z,7.18
2023-10-23T09:23:57.918Z,7.46
2023-10-23T09:29:00.683Z,7.27
2023-10-23T09:34:04.144Z,7.35
2023-10-23T09:39:07.545Z,7.07
2023-10-23T09:44:10.772Z,6.93
2023-10-23T09:49:13.538Z,6.69
2023-10-23T09:54:23.282Z,6.29
2023-10-23T09:59:30.498Z,6.32
2023-10-23T10:04:35.999Z,6.17
2023-10-23T10:09:40.315Z,5.93
2023-10-23T10:14:44.634Z,6.09
2023-10-23T10:19:48.356Z,6.20
2023-10-23T10:24:52.034Z,6.22
2023-10-23T10:29:54.721Z,6.42
2023-10-23T10:35:01.711Z,6.19
2023-10-23T10:40:06.307Z,6.07
2023-10-23T10:45:16.239Z,6.08
2023-10-23T10:50:51.499Z,6.15
2023-10-23T10:55:54.343Z,6.13
2023-10-23T11:00:58.061Z,6.31
2023-10-23T11:06:01.096Z,6.15
2023-10-23T11:11:06.103Z,6.12
2023-10-23T11:16:08.940Z,6.03
2023-10-23T11:21:11.960Z,5.88
2023-10-23T11:26:14.787Z,5.91
2023-10-23T11:31:17.673Z,5.98
2023-10-23T11:36:22.156Z,6.00
2023-10-23T11:41:26.817Z,5.95
2023-10-23T11:46:31.278Z,6.04
2023-10-23T11:51:34.964Z,5.92
2023-10-23T11:56:38.179Z,6.01
2023-10-23T12:01:40.897Z,6.21
2023-10-23T12:06:43.822Z,6.25
2023-10-23T12:11:46.720Z,5.87
2023-10-23T12:16:49.573Z,5.77
2023-10-23T12:21:52.347Z,5.67
2023-10-23T12:26:57.149Z,5.57
2023-10-23T12:32:02.720Z,5.53
2023-10-23T12:37:08.545Z,5.82
2023-10-23T12:42:11.278Z,6.17
2023-10-23T12:47:14.293Z,6.20
2023-10-23T12:52:17.296Z,6.24
2023-10-23T12:57:19.925Z,6.36
2023-10-23T13:02:22.574Z,6.10
2023-10-23T13:07:25.328Z,5.93
2023-10-23T13:12:28.030Z,5.57
2023-10-23T13:17:30.985Z,5.34
2023-10-23T13:22:35.728Z,5.30
2023-10-23T13:27:40.414Z,5.00
2023-10-23T13:32:43.213Z,5.04
2023-10-23T13:37:46.091Z,5.23
2023-10-23T13:42:48.809Z,5.33
2023-10-23T13:47:51.583Z,5.28
2023-10-23T13:52:54.331Z,5.27
2023-10-23T13:57:57.430Z,5.44
2023-10-23T14:03:00.348Z,5.55
2023-10-23T14:08:03.423Z,5.82
2023-10-23T14:13:06.126Z,5.90
2023-10-23T14:18:08.981Z,5.70
2023-10-23T14:23:11.773Z,5.65
2023-10-23T14:28:14.421Z,5.56
2023-10-23T14:33:17.386Z,5.44
2023-10-23T14:38:24.848Z,5.42
2023-10-23T14:43:28.648Z,5.14
2023-10-23T14:48:31.440Z,4.99
2023-10-23T14:53:34.171Z,4.92
2023-10-23T14:58:37.202Z,4.76
2023-10-23T15:03:43.404Z,4.69
2023-10-23T15:08:46.671Z,4.63
2023-10-23T15:13:50.906Z,4.50
2023-10-23T15:18:54.294Z,4.47
2023-10-23T15:23:57.255Z,4.27
2023-10-23T15:29:00.004Z,4.20
2023-10-23T15:34:02.821Z,4.07
2023-10-23T15:39:05.779Z,3.84
2023-10-23T15:44:08.515Z,3.77
2023-10-23T15:49:11.415Z,3.74
2023-10-23T15:54:14.160Z,3.57
2023-10-23T15:59:17.241Z,3.51
2023-10-23T16:04:20.243Z,3.68
2023-10-23T16:09:27.479Z,3.68
2023-10-23T16:14:34.610Z,3.66
2023-10-23T16:19:42.163Z,3.54
2023-10-23T16:24:44.893Z,3.44
2023-10-23T16:29:50.231Z,3.53
2023-10-23T16:34:53.214Z,3.50
2023-10-23T16:39:57.352Z,3.41
2023-10-23T16:45:00.247Z,3.31
2023-10-23T16:50:05.147Z,3.25
2023-10-23T16:55:09.092Z,3.09
2023-10-23T17:00:17.100Z,3.04
2023-10-23T17:05:19.894Z,2.96
2023-10-23T17:10:22.739Z,2.93
2023-10-23T17:15:25.427Z,2.83
2023-10-23T17:20:28.079Z,2.67
2023-10-23T17:25:30.765Z,2.73
2023-10-23T17:30:33.422Z,2.70
2023-10-23T17:35:36.696Z,2.70
2023-10-23T17:40:39.444Z,2.76
2023-10-23T17:45:42.503Z,2.66
2023-10-23T17:50:45.201Z,2.72
2023-10-23T17:55:48.093Z,2.76
2023-10-23T18:00:51.652Z,2.69
2023-10-23T18:06:01.239Z,2.58
2023-10-23T18:11:05.658Z,2.49
2023-10-23T18:16:09.448Z,2.52
2023-10-23T18:21:12.499Z,2.62
2023-10-23T18:26:15.210Z,2.63
2023-10-23T18:31:18.105Z,2.65
2023-10-23T18:36:21.811Z,2.57
2023-10-23T18:41:24.770Z,2.46
2023-10-23T18:46:27.545Z,2.53
2023-10-23T18:51:30.322Z,2.54
2023-10-23T18:56:34.439Z,2.50
2023-10-23T19:01:37.307Z,2.44
2023-10-23T19:06:40.443Z,2.37
2023-10-23T19:11:43.128Z,2.27
2023-10-23T19:16:46.238Z,2.24
2023-10-23T19:21:48.968Z,2.23
2023-10-23T19:26:51.621Z,2.21
2023-10-23T19:31:54.583Z,2.10
2023-10-23T19:36:58.799Z,2.12
2023-10-23T19:42:03.304Z,1.98
2023-10-23T19:47:06.460Z,2.00
2023-10-23T19:52:12.289Z,1.99
2023-10-23T19:57:15.531Z,1.88
2023-10-23T20:02:18.404Z,1.73
2023-10-23T20:07:21.541Z,1.68
2023-10-23T20:12:24.400Z,1.56
2023-10-23T20:17:27.300Z,1.52
2023-10-23T20:22:30.117Z,1.49
2023-10-23T20:27:32.787Z,1.46
2023-10-23T20:32:35.705Z,1.45
2023-10-23T20:37:38.723Z,1.43
2023-10-23T20:42:41.550Z,1.54
2023-10-23T20:47:44.279Z,1.45
2023-10-23T20:52:47.022Z,1.45
2023-10-23T20:57:49.663Z,1.33
2023-10-23T21:02:52.707Z,1.39
2023-10-23T21:07:55.559Z,1.34
2023-10-23T21:12:58.290Z,1.15
2023-10-23T21:18:01.091Z,1.21
2023-10-23T21:23:06.945Z,1.17
2023-10-23T21:28:09.776Z,1.22
2023-10-23T21:33:12.902Z,1.23
2023-10-23T21:38:15.910Z,1.26
2023-10-23T21:43:19.715Z,1.25
2023-10-23T21:48:22.582Z,1.32
2023-10-23T21:53:25.575Z,1.33
2023-10-23T21:59:05.295Z,1.29
2023-10-23T22:03:53.134Z,1.28
2023-10-23T22:08:56.170Z,1.30
2023-10-23T22:13:58.973Z,1.29
2023-10-23T22:19:01.629Z,1.31
2023-10-23T22:24:04.811Z,1.33
2023-10-23T22:29:07.534Z,1.24
2023-10-23T22:34:10.335Z,1.26
2023-10-23T22:39:12.980Z,1.17
2023-10-23T22:44:17.653Z,1.25
2023-10-23T22:49:20.561Z,1.35
2023-10-23T22:54:24.383Z,1.28
2023-10-23T22:59:27.371Z,1.33
2023-10-23T23:04:30.412Z,1.39
2023-10-23T23:09:33.373Z,1.37
2023-10-23T23:14:36.218Z,1.45
2023-10-23T23:19:44.105Z,1.38
2023-10-23T23:24:46.811Z,1.30
2023-10-23T23:29:49.447Z,1.38
2023-10-23T23:34:52.111Z,1.46
2023-10-23T23:39:54.740Z,1.42
2023-10-23T23:45:12.598Z,1.46
2023-10-23T23:50:15.248Z,1.38
2023-10-23T23:55:17.941Z,1.36
